Time;durP1;ratioP1;P1;durP2;ratioP2;P2;SDS_P1;SDS_P2;PMS_P1;PMS_P2;Temp;Humidity;BMP_temperature;BMP_pressure;BME280_temperature;BME280_humidity;BME280_pressure;Samples;Min_cycle;Max_cycle;Signal;HPM_P1;HPM_P2
2022/10/10 06:53:28;;;;;;;;;17.25;15.25;;;;;12.67;69.55;101229.22;2384507;28;45575;-80
2022/10/10 06:54:38;;;;;;;;;17.75;12.75;;;;;12.68;69.43;101228.31;2392414;28;45328;-80
2022/10/10 06:55:48;;;;;;;;;15.25;11.75;;;;;12.70;69.45;101234.41;2374401;28;45232;-80
2022/10/10 06:56:59;;;;;;;;;12.00;12.00;;;;;12.76;69.63;101237.75;2382061;28;46330;-82
2022/10/10 06:58:09;;;;;;;;;14.50;12.00;;;;;12.77;69.79;101242.09;2391295;28;44759;-82
2022/10/10 06:59:19;;;;;;;;;15.25;15.25;;;;;12.80;69.86;101240.22;2393467;28;45287;-81
2022/10/10 07:00:30;;;;;;;;;16.50;13.25;;;;;12.85;68.97;101242.69;2383500;28;45268;-80
2022/10/10 07:01:40;;;;;;;;;16.50;16.00;;;;;12.88;69.62;101249.66;2385994;28;45374;-80
2022/10/10 07:02:51;;;;;;;;;20.75;14.75;;;;;12.89;69.38;101241.66;2385479;28;45233;-80
2022/10/10 07:04:01;;;;;;;;;16.25;15.50;;;;;12.96;69.46;101249.38;2385808;28;46476;-81
2022/10/10 07:05:14;;;;;;;;;17.25;14.50;;;;;12.97;69.44;101245.81;2383279;28;45476;-80
2022/10/10 07:06:25;;;;;;;;;17.25;15.00;;;;;13.00;69.61;101254.50;2385284;28;45608;-81
2022/10/10 07:07:35;;;;;;;;;18.50;14.25;;;;;13.05;69.36;101251.69;2377301;28;45273;-81
2022/10/10 07:08:46;;;;;;;;;15.75;14.50;;;;;13.10;69.29;101256.81;2384663;28;45334;-80
2022/10/10 07:09:56;;;;;;;;;15.00;14.00;;;;;13.13;69.00;101254.06;2392253;28;45395;-81
2022/10/10 07:11:07;;;;;;;;;18.25;13.75;;;;;13.18;69.17;101254.78;2393050;28;45399;-81
2022/10/10 07:12:18;;;;;;;;;15.25;14.75;;;;;13.21;68.89;101252.00;2393222;28;44844;-81
2022/10/10 07:13:28;;;;;;;;;18.50;17.75;;;;;13.25;69.12;101252.75;2382464;28;46705;-81
2022/10/10 07:14:38;;;;;;;;;17.50;17.00;;;;;13.28;69.29;101253.50;2386436;28;44642;-81
2022/10/10 07:15:49;;;;;;;;;13.00;11.00;;;;;13.35;68.99;101263.84;2393462;28;45276;-80
2022/10/10 07:16:59;;;;;;;;;18.75;15.50;;;;;13.37;68.85;101254.97;2393526;28;45176;-80
2022/10/10 07:18:10;;;;;;;;;14.75;11.25;;;;;13.41;69.29;101260.13;2393290;28;45333;-80
2022/10/10 07:19:23;;;;;;;;;18.50;14.75;;;;;13.45;68.84;101257.31;2393276;28;45247;-80
2022/10/10 07:20:34;;;;;;;;;17.00;16.75;;;;;13.50;68.96;101257.16;2393433;28;46522;-80
2022/10/10 07:21:45;;;;;;;;;15.50;15.00;;;;;13.56;69.06;101266.59;2393408;28;44774;-80
2022/10/10 07:22:56;;;;;;;;;11.75;11.75;;;;;13.59;68.86;101271.81;2393049;28;45431;-80
2022/10/10 07:24:06;;;;;;;;;5.00;1.50;;;;;13.64;68.88;101263.72;2393662;28;45379;-80
2022/10/10 07:25:16;;;;;;;;;15.50;14.25;;;;;13.68;68.62;101267.97;2393293;28;45523;-80
2022/10/10 07:26:29;;;;;;;;;19.25;19.25;;;;;13.72;68.62;101267.81;2393390;28;44739;-81
2022/10/10 07:27:40;;;;;;;;;12.75;10.75;;;;;13.77;68.69;101266.75;2392853;28;45627;-80
2022/10/10 07:28:50;;;;;;;;;14.00;14.00;;;;;13.84;68.91;101273.53;2383457;28;45262;-81
2022/10/10 07:30:00;;;;;;;;;21.00;17.25;;;;;13.86;68.37;101274.34;2384935;28;47004;-80
2022/10/10 07:31:11;;;;;;;;;33.00;27.25;;;;;13.91;68.69;101266.22;2392680;28;44840;-81
2022/10/10 07:32:21;;;;;;;;;26.50;20.50;;;;;13.97;68.51;101273.06;2393137;28;45207;-81
2022/10/10 07:33:34;;;;;;;;;21.25;18.25;;;;;14.01;68.36;101269.38;2393649;28;45275;-80
2022/10/10 07:34:44;;;;;;;;;13.25;12.00;;;;;14.04;68.71;101266.63;2392847;28;45659;-81
2022/10/10 07:35:55;;;;;;;;;16.00;14.25;;;;;14.09;68.48;101261.16;2393379;28;44739;-81
2022/10/10 07:37:05;;;;;;;;;17.00;15.50;;;;;14.15;68.41;101264.41;2393312;28;45412;-81
2022/10/10 07:38:16;;;;;;;;;18.00;13.75;;;;;14.20;68.46;101264.22;2393153;28;45345;-81
2022/10/10 07:39:26;;;;;;;;;15.50;14.75;;;;;14.23;68.02;101268.50;2382716;28;48027;-80
2022/10/10 07:40:39;;;;;;;;;17.50;15.00;;;;;14.28;68.01;101266.56;2385853;28;45295;-80
2022/10/10 07:41:50;;;;;;;;;19.25;15.75;;;;;14.31;68.04;101266.44;2393258;28;46099;-81
2022/10/10 07:43:01;;;;;;;;;18.00;15.75;;;;;14.35;68.01;101268.03;2393318;28;44763;-80
2022/10/10 07:44:11;;;;;;;;;18.50;15.75;;;;;14.38;67.77;101272.34;2393061;28;45278;-81
2022/10/10 07:45:22;;;;;;;;;12.50;10.00;;;;;14.42;67.84;101268.63;2393333;28;45146;-80
2022/10/10 07:46:32;;;;;;;;;12.75;9.75;;;;;14.47;68.02;101281.69;2382841;28;48199;-80
2022/10/10 07:47:42;;;;;;;;;14.50;13.75;;;;;14.50;67.84;101281.53;2386216;28;45219;-81
2022/10/10 07:48:54;;;;;;;;;15.75;13.25;;;;;14.53;67.68;101281.44;2390736;28;47400;-81
2022/10/10 07:50:06;;;;;;;;;21.50;18.50;;;;;14.55;67.55;101282.22;2389884;28;44684;-81
2022/10/10 07:51:17;;;;;;;;;16.50;16.25;;;;;14.61;67.62;101289.06;2383726;28;45410;-81
2022/10/10 07:52:27;;;;;;;;;20.50;15.00;;;;;14.61;67.26;101283.75;2393008;28;45222;-80
2022/10/10 07:53:39;;;;;;;;;16.75;14.50;;;;;14.65;67.49;101289.78;2392554;28;45408;-80
2022/10/10 07:54:49;;;;;;;;;17.00;14.25;;;;;14.70;67.61;101285.16;2393872;28;45160;-81
2022/10/10 07:56:06;;;;;;;;;21.00;15.75;;;;;14.73;67.64;101285.03;2394043;28;45211;-81
2022/10/10 07:57:16;;;;;;;;;20.75;19.25;;;;;14.74;67.52;101284.94;2384251;28;45385;-80
2022/10/10 07:58:26;;;;;;;;;16.00;14.75;;;;;14.80;67.16;101280.34;2387066;28;45344;-81
2022/10/10 07:59:39;;;;;;;;;16.75;13.75;;;;;14.83;67.33;101285.50;2394434;28;45219;-81
2022/10/10 08:00:49;;;;;;;;;15.00;12.50;;;;;14.85;67.63;101284.53;2393767;28;45558;-80
2022/10/10 08:02:00;;;;;;;;;19.50;16.75;;;;;14.89;67.29;101282.63;2394451;28;45175;-80
2022/10/10 08:03:11;;;;;;;;;15.50;13.75;;;;;14.92;67.12;101282.50;2393961;28;46538;-80
2022/10/10 08:04:21;;;;;;;;;16.25;15.00;;;;;14.94;67.27;101279.78;2394488;28;45224;-81
2022/10/10 08:05:31;;;;;;;;;17.25;14.00;;;;;14.99;66.98;101282.25;2394163;28;46487;-81
2022/10/10 08:06:42;;;;;;;;;17.00;14.25;;;;;15.01;67.06;101281.25;2383623;28;45271;-81
2022/10/10 08:07:52;;;;;;;;;19.25;15.50;;;;;15.04;66.97;101283.75;2386365;28;45351;-81
2022/10/10 08:09:02;;;;;;;;;17.50;14.75;;;;;15.07;66.79;101286.28;2397384;28;45373;-81
2022/10/10 08:10:13;;;;;;;;;24.25;21.25;;;;;15.09;66.68;101288.00;2402628;28;45454;-81
2022/10/10 08:11:23;;;;;;;;;19.75;18.75;;;;;15.11;66.89;101283.50;2394320;28;45369;-81
2022/10/10 08:12:34;;;;;;;;;18.00;17.50;;;;;15.12;66.87;101278.13;2394171;28;46112;-81
2022/10/10 08:13:44;;;;;;;;;22.50;16.00;;;;;15.16;66.83;101287.66;2384204;28;45260;-81
2022/10/10 08:14:55;;;;;;;;;19.00;15.75;;;;;15.17;66.78;101278.78;2387021;28;45294;-81
2022/10/10 08:16:05;;;;;;;;;16.75;15.50;;;;;15.20;66.65;101280.44;2394175;28;45422;-81
2022/10/10 08:17:15;;;;;;;;;13.75;13.75;;;;;15.21;66.97;101282.13;2393687;28;46131;-81
2022/10/10 08:18:26;;;;;;;;;17.00;17.00;;;;;15.24;66.81;101284.66;2384173;28;44752;-81
2022/10/10 08:19:36;;;;;;;;;16.75;14.00;;;;;15.25;66.64;101281.09;2385307;28;45619;-81
2022/10/10 08:20:47;;;;;;;;;19.50;16.50;;;;;15.27;66.81;101284.53;2384239;28;45508;-81
2022/10/10 08:21:57;;;;;;;;;16.50;13.75;;;;;15.27;66.80;101281.88;2386575;28;46312;-81
2022/10/10 08:23:08;;;;;;;;;18.75;17.00;;;;;15.32;66.84;101288.75;2394071;28;45360;-81
2022/10/10 08:24:18;;;;;;;;;16.50;15.00;;;;;15.35;66.93;101289.50;2394107;28;45706;-81
2022/10/10 08:25:28;;;;;;;;;18.25;12.25;;;;;15.38;67.01;101288.50;2394296;28;45171;-81
2022/10/10 08:26:39;;;;;;;;;18.00;15.50;;;;;15.39;67.11;101292.84;2393565;28;45321;-81
2022/10/10 08:27:49;;;;;;;;;15.75;12.25;;;;;15.44;67.34;101292.66;2394337;28;45170;-81
2022/10/10 08:28:59;;;;;;;;;20.00;13.50;;;;;15.44;67.21;101290.88;2394177;28;46082;-81
2022/10/10 08:30:10;;;;;;;;;11.00;11.00;;;;;15.48;66.95;101294.25;2393955;28;45219;-81
2022/10/10 08:31:21;;;;;;;;;13.25;11.00;;;;;15.51;67.41;101297.59;2383944;28;48541;-81
2022/10/10 08:32:31;;;;;;;;;14.25;14.25;;;;;15.53;67.72;101303.69;2386595;28;45532;-81
2022/10/10 08:33:44;;;;;;;;;14.75;12.25;;;;;15.60;67.44;101314.03;2382729;28;48006;-81
2022/10/10 08:34:54;;;;;;;;;17.75;13.50;;;;;15.62;67.41;101312.16;2386136;28;45415;-81
2022/10/10 08:36:11;;;;;;;;;15.50;14.00;;;;;15.65;67.34;101312.03;2393875;28;46184;-81
2022/10/10 08:37:21;;;;;;;;;12.00;10.75;;;;;15.70;67.25;101311.81;2393955;28;44648;-81
2022/10/10 08:38:31;;;;;;;;;11.25;10.25;;;;;15.72;67.38;101316.13;2383922;28;46239;-81
2022/10/10 08:39:42;;;;;;;;;23.00;14.00;;;;;15.77;67.51;101315.91;2386703;28;45236;-81
2022/10/10 08:40:56;;;;;;;;;12.50;12.50;;;;;15.81;67.34;101321.91;2393961;28;46167;-81
2022/10/10 08:42:16;;;;;;;;;11.75;10.00;;;;;15.83;67.20;101312.09;2394091;28;45227;-81
2022/10/10 08:43:39;;;;;;;;;16.25;12.75;;;;;15.88;67.23;101317.22;2393315;28;46597;-81
2022/10/10 08:44:55;;;;;;;;;14.25;13.25;;;;;15.89;66.99;101322.44;2384063;28;45283;-81
2022/10/10 08:46:26;;;;;;;;;17.00;10.25;;;;;15.92;67.25;101319.63;2387062;28;46841;-81
2022/10/10 08:47:59;;;;;;;;;10.50;10.50;;;;;15.94;66.99;101316.91;2394015;28;45250;-81
2022/10/10 08:49:37;;;;;;;;;11.50;10.75;;;;;15.97;67.23;101330.03;2393895;28;46620;-81
2022/10/10 08:50:54;;;;;;;;;10.50;8.75;;;;;15.95;67.01;101330.06;2394139;28;45266;-81
2022/10/10 08:52:23;;;;;;;;;10.25;9.75;;;;;15.99;67.16;101330.81;2393710;28;46277;-81
2022/10/10 08:53:42;;;;;;;;;11.50;11.50;;;;;16.00;67.11;101331.69;2341865;28;1214101;-81
2022/10/10 08:54:54;;;;;;;;;13.25;10.75;;;;;16.00;67.01;101326.38;2388383;28;45473;-81
2022/10/10 08:56:06;;;;;;;;;10.00;8.50;;;;;16.00;67.34;101326.38;2394429;28;45285;-81
2022/10/10 08:57:26;;;;;;;;;11.50;10.50;;;;;16.00;67.28;101334.34;2393956;28;45594;-81
2022/10/10 08:58:44;;;;;;;;;9.25;8.25;;;;;16.02;67.35;101335.13;2394660;28;44831;-81
2022/10/10 09:00:00;;;;;;;;;12.25;9.25;;;;;16.02;67.04;101343.94;2394412;28;45483;-81
2022/10/10 09:01:23;;;;;;;;;12.50;11.00;;;;;16.03;67.20;101342.97;2394233;28;45397;-81
2022/10/10 09:02:56;;;;;;;;;12.00;9.25;;;;;16.05;67.21;101349.09;2394390;28;45451;-81
2022/10/10 09:04:14;;;;;;;;;9.00;9.00;;;;;16.07;67.06;101352.56;2394503;28;45298;-81
2022/10/10 09:05:31;;;;;;;;;10.00;8.25;;;;;16.09;67.21;101347.19;2393949;28;45340;-81
2022/10/10 09:06:59;;;;;;;;;15.50;10.50;;;;;16.13;67.38;101351.41;2393235;28;45202;-81
2022/10/10 09:08:34;;;;;;;;;11.00;10.25;;;;;16.12;67.25;101351.47;2392744;28;45233;-81
2022/10/10 09:10:01;;;;;;;;;16.00;13.25;;;;;16.14;67.34;101345.19;2394423;28;45266;-81
2022/10/10 09:11:44;;;;;;;;;13.50;10.00;;;;;16.17;67.49;101344.19;2394303;28;45504;-81
2022/10/10 09:13:20;;;;;;;;;13.25;11.00;;;;;16.19;67.22;101337.00;2347378;29;44678;-81
2022/10/10 09:14:33;;;;;;;;;13.50;10.25;;;;;16.20;67.28;101333.41;2374736;28;47069;-81
2022/10/10 09:16:13;;;;;;;;;13.00;9.25;;;;;16.20;67.08;101334.25;2378230;28;45477;-81
2022/10/10 09:17:45;;;;;;;;;14.25;12.25;;;;;16.23;67.18;101343.00;2390035;28;45470;-81
2022/10/10 09:19:07;;;;;;;;;13.75;12.00;;;;;16.24;67.41;101339.44;2388408;28;45155;-82
2022/10/10 09:20:35;;;;;;;;;12.50;11.75;;;;;16.25;67.37;101343.81;2394176;28;46608;-81
2022/10/10 09:21:46;;;;;;;;;13.50;11.50;;;;;16.25;67.28;101351.78;2394316;28;45365;-81
2022/10/10 09:23:07;;;;;;;;;10.75;9.75;;;;;16.25;67.24;101346.47;2394035;28;46655;-81
2022/10/10 09:24:41;;;;;;;;;12.75;10.00;;;;;16.28;67.30;101351.59;2393929;28;45278;-81
2022/10/10 09:25:51;;;;;;;;;12.50;10.75;;;;;16.31;67.29;101356.78;2394002;28;45368;-81
2022/10/10 09:27:05;;;;;;;;;16.25;11.00;;;;;16.31;67.62;101351.47;2394215;28;45265;-81
2022/10/10 09:28:42;;;;;;;;;16.50;12.00;;;;;16.33;67.40;101349.59;2393959;28;45404;-81
2022/10/10 09:29:56;;;;;;;;;12.25;9.00;;;;;16.34;67.17;101350.47;2384116;28;45163;-81
2022/10/10 09:31:22;;;;;;;;;14.50;12.50;;;;;16.35;67.21;101355.69;2394182;28;46427;-81
2022/10/10 09:32:39;;;;;;;;;11.50;11.00;;;;;16.36;67.29;101360.06;2394191;28;45223;-81
2022/10/10 09:34:12;;;;;;;;;12.25;11.50;;;;;16.41;67.25;101367.81;2393740;28;45257;-81
2022/10/10 09:35:33;;;;;;;;;15.00;11.50;;;;;16.41;67.36;101365.16;2390204;28;44589;-81
2022/10/10 09:36:45;;;;;;;;;11.75;11.75;;;;;16.44;67.34;101372.97;2394145;28;45272;-81
2022/10/10 09:38:05;;;;;;;;;13.00;11.75;;;;;16.47;67.20;101375.47;2394099;28;45374;-81
2022/10/10 09:39:31;;;;;;;;;12.75;10.50;;;;;16.50;67.52;101374.44;2384843;28;45403;-81
2022/10/10 09:40:51;;;;;;;;;12.50;10.50;;;;;16.54;67.42;101378.69;2393818;28;45230;-82
2022/10/10 09:42:10;;;;;;;;;14.00;11.00;;;;;16.62;67.33;101381.81;2394069;28;46414;-81
2022/10/10 09:43:30;;;;;;;;;12.25;10.00;;;;;16.67;67.31;101383.41;2393946;28;45218;-81
2022/10/10 09:44:42;;;;;;;;;12.25;11.00;;;;;16.72;67.49;101373.41;2383824;28;48101;-80
2022/10/10 09:45:57;;;;;;;;;10.25;9.25;;;;;16.77;67.06;101382.00;2387236;28;44650;-82
2022/10/10 09:47:15;;;;;;;;;10.00;9.25;;;;;16.86;67.19;101386.03;2393639;28;46416;-80
2022/10/10 09:48:35;;;;;;;;;9.50;6.25;;;;;16.90;66.95;101389.38;2383723;28;45269;-81
2022/10/10 09:49:45;;;;;;;;;14.75;14.25;;;;;16.95;67.10;101387.34;2383892;28;47341;-81
2022/10/10 09:50:56;;;;;;;;;14.00;11.00;;;;;16.98;66.77;101392.50;2386948;28;45460;-81
2022/10/10 09:52:24;;;;;;;;;9.25;7.50;;;;;17.00;66.65;101387.97;2385977;28;45382;-80
2022/10/10 09:53:34;;;;;;;;;11.25;9.50;;;;;17.04;66.92;101389.53;2392975;28;44770;-81
2022/10/10 09:54:46;;;;;;;;;11.00;10.50;;;;;17.06;66.51;101384.16;2393802;28;46457;-80
2022/10/10 09:55:57;;;;;;;;;15.00;11.25;;;;;17.09;66.59;101391.97;2393731;28;45532;-80
2022/10/10 09:57:13;;;;;;;;;9.25;9.25;;;;;17.13;66.67;101392.69;2394003;28;45663;-81
2022/10/10 09:58:36;;;;;;;;;12.25;12.00;;;;;17.18;66.66;101393.34;2394082;28;45286;-80
2022/10/10 09:59:47;;;;;;;;;10.00;7.75;;;;;17.20;66.59;101392.31;2393978;28;46437;-80
2022/10/10 10:01:13;;;;;;;;;11.75;10.25;;;;;17.23;66.01;101401.94;2381414;28;45603;-81
2022/10/10 10:02:25;;;;;;;;;17.00;12.50;;;;;17.27;66.66;101397.31;2375211;28;48156;-81
2022/10/10 10:03:36;;;;;;;;;14.00;11.50;;;;;17.31;66.64;101394.41;2386826;28;45349;-81
2022/10/10 10:04:48;;;;;;;;;13.00;10.25;;;;;17.38;66.21;101399.44;2393687;28;46174;-81
2022/10/10 10:05:59;;;;;;;;;11.00;9.25;;;;;17.41;66.63;101400.13;2392938;28;44769;-81
2022/10/10 10:07:20;;;;;;;;;18.25;13.75;;;;;17.47;66.12;101398.94;2393550;28;45269;-80
2022/10/10 10:08:33;;;;;;;;;11.75;11.75;;;;;17.49;66.11;101396.19;2383578;28;45320;-81
2022/10/10 10:09:56;;;;;;;;;17.25;10.75;;;;;17.53;66.12;101395.97;2372800;28;46950;-81
2022/10/10 10:11:38;;;;;;;;;11.50;9.25;;;;;17.59;65.72;101396.56;2387130;28;45425;-81
2022/10/10 10:12:49;;;;;;;;;11.50;11.00;;;;;17.62;65.83;101397.28;2393358;28;46290;-81
2022/10/10 10:14:01;;;;;;;;;13.00;13.00;;;;;17.64;65.65;101399.84;2383722;28;45216;-81
2022/10/10 10:15:23;;;;;;;;;11.25;10.75;;;;;17.67;65.52;101397.03;2382372;28;48098;-81
2022/10/10 10:16:39;;;;;;;;;11.00;11.00;;;;;17.71;65.65;101401.25;2388321;28;45266;-81
2022/10/10 10:18:08;;;;;;;;;13.25;12.25;;;;;17.77;65.37;101400.06;2382999;28;46423;-81
2022/10/10 10:19:31;;;;;;;;;14.00;11.00;;;;;17.82;64.90;101399.81;2387771;28;45374;-81
2022/10/10 10:20:47;;;;;;;;;10.50;10.50;;;;;17.86;65.09;101396.06;2381736;28;47214;-81
2022/10/10 10:21:58;;;;;;;;;11.75;10.00;;;;;17.89;65.41;101401.22;2387396;28;45342;-81
2022/10/10 10:23:25;;;;;;;;;11.75;10.50;;;;;17.96;65.50;101405.25;2393158;28;45413;-81
2022/10/10 10:24:35;;;;;;;;;13.25;11.00;;;;;17.99;65.26;101399.78;2393785;28;44684;-80
2022/10/10 10:26:05;;;;;;;;;16.00;12.50;;;;;18.04;64.77;101401.31;2393350;28;45331;-80
2022/10/10 10:27:20;;;;;;;;;13.50;13.50;;;;;18.11;64.75;101408.03;2393471;28;45535;-81
2022/10/10 10:28:39;;;;;;;;;14.50;11.25;;;;;18.14;64.76;101410.53;2393610;28;45333;-80
2022/10/10 10:29:55;;;;;;;;;8.75;8.75;;;;;18.20;64.75;101420.00;2393132;28;45475;-80
2022/10/10 10:31:34;;;;;;;;;16.00;11.50;;;;;18.23;65.03;101422.50;2393657;28;46700;-80
2022/10/10 10:33:07;;;;;;;;;13.50;12.25;;;;;18.26;64.84;101425.00;2355705;29;45528;-80
2022/10/10 10:34:29;;;;;;;;;14.75;11.00;;;;;18.32;64.19;101423.81;2392598;28;45357;-80
2022/10/10 10:35:46;;;;;;;;;15.00;12.25;;;;;18.33;64.36;101423.72;2393639;28;45335;-80
2022/10/10 10:37:21;;;;;;;;;12.00;10.50;;;;;18.36;63.84;101427.13;2388891;28;45460;-80
2022/10/10 10:38:41;;;;;;;;;16.50;14.50;;;;;18.38;63.92;101430.56;2393147;28;45174;-80
2022/10/10 10:40:10;;;;;;;;;13.25;10.00;;;;;18.42;63.90;101432.97;2390542;28;45666;-80
2022/10/10 10:41:30;;;;;;;;;15.25;13.50;;;;;18.44;63.77;101433.78;2393559;28;45207;-80
2022/10/10 10:43:22;;;;;;;;;13.25;12.50;;;;;18.46;63.87;101432.81;2383154;28;47759;-80
2022/10/10 10:44:44;;;;;;;;;15.00;13.00;;;;;18.49;63.56;101437.97;2391339;28;45409;-80
2022/10/10 10:46:10;;;;;;;;;11.25;11.25;;;;;18.51;63.51;101436.94;2393456;28;46352;-80
2022/10/10 10:47:38;;;;;;;;;15.25;13.25;;;;;18.55;63.45;101443.81;2393427;28;45716;-80
2022/10/10 10:49:09;;;;;;;;;12.50;9.50;;;;;18.60;63.26;101440.88;2392747;28;46515;-80
2022/10/10 10:50:43;;;;;;;;;13.75;11.50;;;;;18.65;63.94;101451.25;2383451;28;45355;-80
2022/10/10 10:52:19;;;;;;;;;18.00;11.50;;;;;18.68;63.42;101437.78;2389380;28;46509;-81
2022/10/10 10:53:39;;;;;;;;;12.75;12.75;;;;;18.72;63.47;101443.78;2393228;28;45262;-80
2022/10/10 10:55:15;;;;;;;;;13.25;12.25;;;;;18.75;62.82;101448.94;2392997;28;45177;-80
2022/10/10 10:56:37;;;;;;;;;13.00;12.25;;;;;18.74;63.13;101448.06;2393511;28;44811;-80
2022/10/10 10:58:03;;;;;;;;;12.75;12.50;;;;;18.75;62.58;101451.59;2393268;28;45422;-80
2022/10/10 10:59:42;;;;;;;;;14.50;11.50;;;;;18.76;63.24;101456.00;2392907;28;44700;-80
2022/10/10 11:01:00;;;;;;;;;16.75;14.00;;;;;18.75;63.51;101456.94;2393224;28;45509;-80
2022/10/10 11:02:36;;;;;;;;;14.75;10.25;;;;;18.77;62.94;101452.38;2393386;28;44659;-80
2022/10/10 11:04:02;;;;;;;;;14.00;12.00;;;;;18.81;63.52;101463.72;2393323;28;46589;-80
2022/10/10 11:05:53;;;;;;;;;11.75;11.75;;;;;18.88;63.73;101465.09;2389230;28;45211;-80
2022/10/10 11:07:24;;;;;;;;;15.25;12.50;;;;;18.92;62.74;101463.09;2382659;28;47869;-80
2022/10/10 11:08:41;;;;;;;;;13.75;11.50;;;;;18.94;63.12;101463.88;2388969;28;45311;-80
2022/10/10 11:10:01;;;;;;;;;12.25;12.25;;;;;18.95;62.83;101465.59;2393099;28;45418;-80
2022/10/10 11:11:22;;;;;;;;;14.75;12.75;;;;;19.00;62.91;101460.84;2393444;28;45247;-80
2022/10/10 11:12:54;;;;;;;;;15.75;12.75;;;;;19.06;63.24;101468.47;2393325;28;45493;-81
2022/10/10 11:14:07;;;;;;;;;14.50;12.50;;;;;19.12;62.93;101462.81;2392908;28;45700;-81
2022/10/10 11:15:25;;;;;;;;;14.25;13.00;;;;;19.18;63.00;101466.97;2392772;28;46447;-81
2022/10/10 11:16:41;;;;;;;;;14.25;12.75;;;;;19.19;62.55;101468.66;2393400;28;45147;-81
2022/10/10 11:18:02;;;;;;;;;16.75;12.75;;;;;19.23;62.70;101474.69;2393307;28;46381;-81
2022/10/10 11:19:33;;;;;;;;;15.00;11.50;;;;;19.25;62.59;101482.59;2377791;28;45318;-81
2022/10/10 11:21:17;;;;;;;;;12.25;9.75;;;;;19.28;62.66;101477.94;2385243;28;46822;-81
2022/10/10 11:23:00;;;;;;;;;10.50;8.00;;;;;19.30;62.68;101476.06;2393000;28;44812;-81
2022/10/10 11:24:52;;;;;;;;;12.75;9.75;;;;;19.36;62.37;101474.81;2392842;28;45518;-81
2022/10/10 11:26:11;;;;;;;;;8.25;7.00;;;;;19.39;61.65;101469.31;2393388;28;45262;-81
2022/10/10 11:27:42;;;;;;;;;13.25;10.75;;;;;19.45;62.75;101474.28;2392530;28;45639;-81
2022/10/10 11:28:55;;;;;;;;;13.00;12.25;;;;;19.50;61.73;101475.81;2392518;28;45426;-81
2022/10/10 11:30:16;;;;;;;;;12.75;8.00;;;;;19.54;61.50;101470.22;2382840;28;48061;-81
2022/10/10 11:31:37;;;;;;;;;11.50;10.75;;;;;19.60;61.53;101470.78;2378466;28;45303;-81
2022/10/10 11:32:59;;;;;;;;;11.50;10.00;;;;;19.65;61.43;101474.91;2390785;28;46355;-81
2022/10/10 11:34:39;;;;;;;;;16.75;11.25;;;;;19.68;61.69;101474.69;2379342;28;44705;-81
2022/10/10 11:36:02;;;;;;;;;14.50;12.00;;;;;19.74;61.56;101484.16;2389494;28;45438;-81
2022/10/10 11:37:18;;;;;;;;;18.25;14.50;;;;;19.79;61.48;101479.41;2382945;28;45275;-81
2022/10/10 11:38:49;;;;;;;;;14.25;13.50;;;;;19.85;61.42;101479.97;2386736;28;45279;-81
2022/10/10 11:40:03;;;;;;;;;13.50;11.75;;;;;19.90;61.50;101480.56;2393388;28;45287;-81
2022/10/10 11:41:16;;;;;;;;;14.25;12.25;;;;;19.95;61.39;101478.44;2393068;28;46935;-81
2022/10/10 11:42:36;;;;;;;;;13.00;10.75;;;;;20.02;61.50;101477.16;2382194;28;45957;-81
2022/10/10 11:44:19;;;;;;;;;13.00;13.00;;;;;20.09;61.04;101476.75;2386888;28;46528;-81
2022/10/10 11:45:35;;;;;;;;;15.25;12.75;;;;;20.13;60.71;101478.28;2390981;28;45286;-81
2022/10/10 11:46:55;;;;;;;;;12.50;12.00;;;;;20.16;60.75;101488.78;2388300;28;45498;-81
2022/10/10 11:48:18;;;;;;;;;12.25;11.50;;;;;20.18;60.31;101484.22;2393161;28;45411;-81
2022/10/10 11:49:46;;;;;;;;;13.50;10.25;;;;;20.19;60.47;101488.59;2392678;28;46373;-81
2022/10/10 11:51:10;;;;;;;;;15.25;13.50;;;;;20.18;60.35;101484.22;2382528;28;45337;-81
2022/10/10 11:52:33;;;;;;;;;13.25;11.25;;;;;20.20;60.63;101484.97;2381993;28;46329;-81
2022/10/10 11:53:48;;;;;;;;;16.75;12.50;;;;;20.20;60.65;101479.63;2392299;28;45341;-81
2022/10/10 11:55:21;;;;;;;;;13.00;12.00;;;;;20.22;60.77;101488.38;2392977;28;45338;-81
2022/10/10 11:56:41;;;;;;;;;11.00;11.00;;;;;20.21;60.57;101489.38;2392592;28;45189;-81
2022/10/10 11:58:03;;;;;;;;;10.25;9.50;;;;;20.21;60.16;101485.84;2393018;28;46554;-81
2022/10/10 11:59:16;;;;;;;;;14.75;11.75;;;;;20.21;59.87;101488.50;2393195;28;45238;-81
2022/10/10 12:00:27;;;;;;;;;11.50;11.25;;;;;20.18;60.28;101488.69;2393044;28;45439;-81
2022/10/10 12:01:46;;;;;;;;;13.50;12.50;;;;;20.16;60.21;101486.13;2389113;28;45255;-81
2022/10/10 12:02:57;;;;;;;;;10.50;9.00;;;;;20.12;60.40;101492.59;2390637;28;46662;-81
2022/10/10 12:04:07;;;;;;;;;12.25;10.75;;;;;20.09;60.59;101484.75;2393184;28;45143;-81
2022/10/10 12:05:24;;;;;;;;;15.25;14.00;;;;;20.06;60.38;101485.81;2392860;28;46198;-81
2022/10/10 12:06:37;;;;;;;;;14.00;13.75;;;;;20.07;60.82;101484.84;2392883;28;45457;-81
2022/10/10 12:08:00;;;;;;;;;13.75;11.50;;;;;20.06;60.25;101479.59;2392255;28;46356;-81
2022/10/10 12:09:36;;;;;;;;;16.00;14.25;;;;;20.06;60.86;101487.59;2393205;28;45241;-81
2022/10/10 12:11:12;;;;;;;;;17.25;14.00;;;;;20.05;60.71;101488.56;2381523;28;47062;-81
2022/10/10 12:12:32;;;;;;;;;11.00;8.00;;;;;20.02;60.28;101482.47;2386120;28;45182;-81
2022/10/10 12:13:47;;;;;;;;;15.00;12.75;;;;;20.03;60.68;101499.31;2392689;28;45441;-81
2022/10/10 12:15:02;;;;;;;;;22.75;17.50;;;;;20.04;60.79;101484.19;2391084;28;44795;-81
2022/10/10 12:16:18;;;;;;;;;16.50;15.25;;;;;20.03;60.73;101488.66;2382847;28;46836;-81
2022/10/10 12:17:34;;;;;;;;;23.00;18.25;;;;;20.03;60.81;101483.31;2386541;28;44729;-81
2022/10/10 12:19:22;;;;;;;;;17.00;15.25;;;;;20.04;61.18;101473.50;2392751;28;46462;-81
2022/10/10 12:20:34;;;;;;;;;14.50;12.50;;;;;20.05;60.55;101489.41;2392152;28;44686;-81
2022/10/10 12:22:07;;;;;;;;;13.75;11.75;;;;;20.06;60.54;101479.59;2389571;28;46658;-81
2022/10/10 12:23:27;;;;;;;;;11.50;11.50;;;;;20.07;60.47;101487.53;2391287;28;45379;-81
2022/10/10 12:25:09;;;;;;;;;14.25;11.75;;;;;20.09;60.47;101485.63;2391931;28;45510;-81
2022/10/10 12:26:20;;;;;;;;;16.25;13.50;;;;;20.10;59.90;101492.66;2382433;28;45509;-81
2022/10/10 12:27:46;;;;;;;;;9.50;7.00;;;;;20.10;60.16;101489.97;2387884;28;45394;-81
2022/10/10 12:29:04;;;;;;;;;16.00;11.75;;;;;20.12;60.28;101489.94;2391449;28;44775;-81
2022/10/10 12:30:19;;;;;;;;;14.25;12.25;;;;;20.09;60.53;101492.75;2392392;28;45393;-81
2022/10/10 12:31:37;;;;;;;;;15.25;14.50;;;;;20.09;60.83;101506.09;2393107;28;45294;-81
2022/10/10 12:32:49;;;;;;;;;14.00;12.00;;;;;20.05;60.43;101500.06;2393023;28;45486;-81
2022/10/10 12:34:20;;;;;;;;;12.50;11.75;;;;;20.02;59.90;101502.97;2392535;28;45235;-81
2022/10/10 12:35:40;;;;;;;;;7.75;7.75;;;;;19.99;59.40;101503.13;2392935;28;46211;-81
2022/10/10 12:36:56;;;;;;;;;13.00;11.25;;;;;19.98;60.04;101506.75;2393109;28;44561;-80
2022/10/10 12:38:20;;;;;;;;;12.50;11.25;;;;;19.97;60.65;101502.38;2392612;28;46188;-81
2022/10/10 12:39:32;;;;;;;;;13.50;12.25;;;;;19.95;60.57;101502.44;2393188;28;44613;-81
2022/10/10 12:41:08;;;;;;;;;18.00;14.50;;;;;19.96;60.30;101508.66;2383689;28;47173;-81
2022/10/10 12:42:27;;;;;;;;;17.25;12.25;;;;;19.91;60.70;101511.59;2391034;28;45260;-81
2022/10/10 12:44:09;;;;;;;;;13.25;11.75;;;;;19.89;60.73;101514.38;2393344;28;46298;-81
2022/10/10 12:45:29;;;;;;;;;16.75;15.25;;;;;19.86;60.90;101521.69;2385258;28;45169;-81
2022/10/10 12:46:41;;;;;;;;;13.50;11.50;;;;;19.85;60.96;101520.00;2392589;28;45492;-81
2022/10/10 12:47:53;;;;;;;;;16.75;14.75;;;;;19.85;60.34;101523.50;2394578;28;45287;-81
2022/10/10 12:49:19;;;;;;;;;13.25;10.50;;;;;19.84;60.56;101516.47;2394536;28;45538;-81
2022/10/10 12:50:37;;;;;;;;;15.50;11.25;;;;;19.84;60.88;101512.94;2394682;28;44522;-81